createdAt,value
2024-05-09T00:02:15.337Z,12.50
2024-05-09T00:05:06.078Z,12.40
2024-05-09T00:07:59.405Z,12.40
2024-05-09T00:10:50.013Z,12.30
2024-05-09T00:13:40.516Z,12.30
2024-05-09T00:16:30.971Z,12.20
2024-05-09T00:19:21.609Z,12.20
2024-05-09T00:22:12.119Z,12.10
2024-05-09T00:25:06.075Z,12.10
2024-05-09T00:27:56.523Z,12.10
2024-05-09T00:30:47.008Z,12.10
2024-05-09T00:33:37.701Z,12.10
2024-05-09T00:36:28.326Z,12.10
2024-05-09T00:39:18.889Z,12.00
2024-05-09T00:42:12.094Z,12.00
2024-05-09T00:45:02.547Z,12.00
2024-05-09T00:47:53.345Z,12.00
2024-05-09T00:50:45.466Z,11.90
2024-05-09T00:53:37.070Z,11.90
2024-05-09T00:56:28.397Z,11.90
2024-05-09T00:59:22.608Z,11.80
2024-05-09T01:02:13.711Z,11.70
2024-05-09T01:05:04.952Z,11.70
2024-05-09T01:07:55.521Z,11.70
2024-05-09T01:10:48.616Z,11.60
2024-05-09T01:13:39.369Z,11.60
2024-05-09T01:16:32.723Z,11.60
2024-05-09T01:19:29.278Z,11.60
2024-05-09T01:22:19.823Z,11.60
2024-05-09T01:25:13.083Z,11.60
2024-05-09T01:28:03.663Z,11.50
2024-05-09T01:30:54.116Z,11.50
2024-05-09T01:33:45.263Z,11.50
2024-05-09T01:36:35.863Z,11.40
2024-05-09T01:39:26.509Z,11.40
2024-05-09T01:42:19.726Z,11.40
2024-05-09T01:45:11.318Z,11.30
2024-05-09T01:48:02.702Z,11.30
2024-05-09T01:50:53.682Z,11.20
2024-05-09T01:53:44.183Z,11.20
2024-05-09T01:56:34.808Z,11.10
2024-05-09T01:59:28.024Z,11.10
2024-05-09T02:02:18.843Z,11.10
2024-05-09T02:05:10.062Z,11.10
2024-05-09T02:08:00.725Z,11.00
2024-05-09T02:10:52.312Z,11.00
2024-05-09T02:13:44.377Z,11.00
2024-05-09T02:16:37.449Z,11.00
2024-05-09T02:19:28.018Z,10.90
2024-05-09T02:22:18.554Z,10.90
2024-05-09T02:25:09.217Z,10.90
2024-05-09T02:27:59.752Z,10.80
2024-05-09T02:30:50.264Z,10.80
2024-05-09T02:33:43.535Z,10.80
2024-05-09T02:36:34.076Z,10.80
2024-05-09T02:39:22.035Z,10.70
2024-05-09T02:42:12.585Z,10.70
2024-05-09T02:45:00.537Z,10.70
2024-05-09T02:47:51.289Z,10.70
2024-05-09T02:50:42.361Z,10.60
2024-05-09T02:53:32.975Z,10.60
2024-05-09T02:56:20.883Z,10.60
2024-05-09T02:59:11.819Z,10.50
2024-05-09T03:01:59.837Z,10.50
2024-05-09T03:04:50.502Z,10.40
2024-05-09T03:16:59.347Z,10.20
2024-05-09T03:19:47.335Z,10.10
2024-05-09T03:22:37.947Z,10.10
2024-05-09T03:25:25.841Z,10.10
2024-05-09T03:28:16.340Z,10.10
2024-05-09T03:31:04.380Z,10.10
2024-05-09T03:33:57.578Z,10.10
2024-05-09T03:36:48.258Z,10.10
2024-05-09T03:39:39.008Z,10.10
2024-05-09T03:42:29.452Z,10.10
2024-05-09T03:45:19.970Z,10.00
2024-05-09T03:48:08.835Z,10.00
2024-05-09T03:51:02.202Z,10.00
2024-05-09T03:53:50.132Z,10.00
2024-05-09T03:56:41.596Z,10.00
2024-05-09T03:59:29.643Z,10.00
2024-05-09T04:02:20.263Z,9.90
2024-05-09T04:05:08.176Z,10.00
2024-05-09T04:08:01.488Z,9.90
2024-05-09T04:10:49.467Z,9.90
2024-05-09T04:13:40.016Z,9.90
2024-05-09T04:16:30.511Z,9.80
2024-05-09T04:19:18.484Z,9.80
2024-05-09T04:22:09.964Z,9.80
2024-05-09T04:25:00.442Z,9.80
2024-05-09T04:27:55.651Z,9.80
2024-05-09T04:30:43.838Z,9.80
2024-05-09T04:33:34.651Z,9.80
2024-05-09T04:36:22.941Z,9.70
2024-05-09T04:39:13.453Z,9.70
2024-05-09T04:42:04.275Z,9.70
2024-05-09T04:44:58.299Z,9.70
2024-05-09T04:47:46.957Z,9.60
2024-05-09T04:50:39.265Z,9.60
2024-05-09T04:53:30.462Z,9.60
2024-05-09T04:56:18.331Z,9.50
2024-05-09T04:59:11.566Z,9.50
2024-05-09T05:01:59.583Z,9.50
2024-05-09T05:04:50.202Z,9.50
2024-05-09T05:07:40.854Z,9.50
2024-05-09T05:10:34.040Z,9.50
2024-05-09T05:13:27.732Z,9.50
2024-05-09T05:16:21.922Z,9.50
2024-05-09T05:19:13.416Z,9.50
2024-05-09T05:22:05.512Z,9.50
2024-05-09T05:24:53.393Z,9.60
2024-05-09T05:27:43.844Z,9.60
2024-05-09T05:30:34.714Z,9.60
2024-05-09T05:33:28.514Z,9.60
2024-05-09T05:36:16.470Z,9.70
2024-05-09T05:39:06.936Z,9.70
2024-05-09T05:41:54.749Z,9.70
2024-05-09T05:44:45.367Z,9.80
2024-05-09T05:51:16.048Z,9.90
2024-05-09T05:54:11.657Z,9.90
2024-05-09T05:56:59.756Z,9.90
2024-05-09T05:59:50.201Z,10.00
2024-05-09T06:02:38.086Z,10.00
2024-05-09T06:05:28.625Z,10.10
2024-05-09T06:08:16.672Z,10.20
2024-05-09T06:11:10.416Z,10.20
2024-05-09T06:13:58.388Z,10.30
2024-05-09T06:16:48.852Z,10.40
2024-05-09T06:19:36.954Z,10.50
2024-05-09T06:22:27.466Z,10.60
2024-05-09T06:25:15.449Z,10.70
2024-05-09T06:28:09.005Z,10.70
2024-05-09T06:30:56.789Z,10.80
2024-05-09T06:33:48.171Z,11.00
2024-05-09T06:36:36.119Z,11.10
2024-05-09T06:39:26.684Z,11.30
2024-05-09T06:42:17.100Z,11.50
2024-05-09T06:45:07.930Z,11.60
2024-05-09T06:47:58.546Z,11.90
2024-05-09T06:50:46.851Z,12.20
2024-05-09T06:53:37.517Z,12.50
2024-05-09T06:56:25.609Z,12.90
2024-05-09T06:59:16.195Z,13.20
2024-05-09T07:02:06.783Z,13.60
2024-05-09T07:04:57.362Z,14.00
2024-05-09T07:07:45.311Z,14.40
2024-05-09T07:10:36.827Z,14.90
2024-05-09T07:13:25.052Z,15.30
2024-05-09T07:16:15.551Z,15.70
2024-05-09T07:19:06.777Z,16.10
2024-05-09T07:21:58.097Z,16.40
2024-05-09T07:24:45.969Z,16.80
2024-05-09T07:27:37.396Z,17.40
2024-05-09T07:30:32.702Z,17.70
2024-05-09T07:33:25.160Z,18.20
2024-05-09T07:36:15.820Z,18.60
2024-05-09T07:39:06.378Z,18.90
2024-05-09T07:41:55.293Z,19.30
2024-05-09T07:44:46.085Z,19.70
2024-05-09T07:53:38.732Z,20.90
2024-05-09T07:56:32.026Z,21.10
2024-05-09T07:59:20.138Z,21.50
2024-05-09T08:02:10.842Z,21.80
2024-05-09T08:04:58.863Z,22.00
2024-05-09T08:07:49.574Z,22.30
2024-05-09T08:10:40.210Z,22.40
2024-05-09T08:13:30.819Z,22.90
2024-05-09T08:16:19.011Z,23.10
2024-05-09T08:19:09.717Z,23.30
2024-05-09T08:21:57.763Z,23.40
2024-05-09T08:24:48.477Z,23.20
2024-05-09T08:27:39.881Z,23.20
2024-05-09T08:30:36.466Z,23.20
2024-05-09T08:33:25.969Z,23.60
2024-05-09T08:36:17.849Z,24.20
2024-05-09T08:39:05.721Z,23.90
2024-05-09T08:41:56.288Z,24.20
2024-05-09T08:44:49.527Z,24.70
2024-05-09T08:47:40.308Z,24.80
2024-05-09T08:50:37.916Z,24.80
2024-05-09T08:53:27.627Z,25.30
2024-05-09T08:56:19.222Z,25.60
2024-05-09T08:59:13.597Z,25.90
2024-05-09T09:02:08.929Z,25.80
2024-05-09T09:05:03.336Z,25.80
2024-05-09T09:07:54.239Z,26.40
2024-05-09T09:10:46.566Z,26.90
2024-05-09T09:13:34.500Z,27.40
2024-05-09T09:16:35.388Z,27.70
2024-05-09T09:19:26.341Z,27.70
2024-05-09T09:22:17.082Z,27.50
2024-05-09T09:25:05.805Z,27.70
2024-05-09T09:27:56.741Z,28.10
2024-05-09T09:30:45.922Z,28.30
2024-05-09T09:33:36.823Z,28.50
2024-05-09T09:36:29.027Z,28.60
2024-05-09T09:39:23.635Z,28.90
2024-05-09T09:42:16.694Z,28.30
2024-05-09T09:45:08.265Z,28.50
2024-05-09T09:47:57.237Z,29.00
2024-05-09T09:50:50.226Z,29.50
2024-05-09T09:53:42.550Z,29.60
2024-05-09T09:56:35.277Z,30.00
2024-05-09T09:59:25.447Z,30.10
2024-05-09T10:02:16.572Z,30.10
2024-05-09T10:05:05.350Z,30.10
2024-05-09T10:07:57.303Z,30.30
2024-05-09T10:10:48.974Z,30.40
2024-05-09T10:13:39.615Z,30.30
2024-05-09T10:16:31.287Z,30.20
2024-05-09T10:19:27.523Z,30.30
2024-05-09T10:22:29.849Z,30.80
2024-05-09T10:25:18.640Z,30.50
2024-05-09T10:28:14.670Z,30.60
2024-05-09T10:31:06.990Z,31.00
2024-05-09T10:33:58.621Z,31.10
2024-05-09T10:36:46.827Z,31.20
2024-05-09T10:39:39.115Z,30.90
2024-05-09T10:42:27.322Z,30.90
2024-05-09T10:45:21.690Z,30.50
2024-05-09T10:48:09.863Z,30.20
2024-05-09T10:51:00.568Z,30.20
2024-05-09T10:53:48.914Z,29.90
2024-05-09T10:56:39.568Z,29.50
2024-05-09T10:59:33.325Z,29.00
2024-05-09T11:02:26.750Z,29.30
2024-05-09T11:05:15.095Z,29.60
2024-05-09T11:08:06.838Z,29.30
2024-05-09T11:10:56.340Z,28.90
2024-05-09T11:13:47.170Z,28.90
2024-05-09T11:16:35.254Z,29.40
2024-05-09T11:19:33.571Z,29.40
2024-05-09T11:22:25.115Z,28.60
2024-05-09T11:25:15.988Z,27.90
2024-05-09T11:28:04.228Z,27.80
2024-05-09T11:30:55.016Z,27.40
2024-05-09T11:33:45.432Z,27.20
2024-05-09T11:36:38.887Z,27.20
2024-05-09T11:39:29.856Z,27.50
2024-05-09T11:42:21.078Z,27.90
2024-05-09T11:45:09.149Z,28.20
2024-05-09T11:48:00.202Z,27.90
2024-05-09T11:50:48.364Z,27.90
2024-05-09T11:53:41.694Z,28.20
2024-05-09T11:56:29.733Z,28.30
2024-05-09T11:59:20.538Z,28.80
2024-05-09T12:02:08.555Z,28.90
2024-05-09T12:04:59.452Z,28.50
2024-05-09T12:07:47.435Z,28.20
2024-05-09T12:10:41.164Z,28.20
2024-05-09T12:13:29.510Z,28.00
2024-05-09T12:16:20.883Z,27.90
2024-05-09T12:19:09.208Z,27.90
2024-05-09T12:22:00.156Z,27.80
2024-05-09T12:24:48.438Z,27.80
2024-05-09T12:27:41.986Z,27.40
2024-05-09T12:30:36.592Z,27.40
2024-05-09T12:33:30.347Z,27.30
2024-05-09T12:36:18.417Z,27.10
2024-05-09T12:39:09.533Z,26.70
2024-05-09T12:41:57.353Z,26.60
2024-05-09T12:44:51.101Z,26.50
2024-05-09T12:47:41.682Z,26.40
2024-05-09T12:50:34.169Z,26.10
2024-05-09T12:53:25.249Z,26.10
2024-05-09T12:56:16.021Z,25.60
2024-05-09T12:59:04.130Z,25.40
2024-05-09T13:02:00.414Z,25.40
2024-05-09T13:04:49.081Z,25.50
2024-05-09T13:07:39.825Z,25.30
2024-05-09T13:10:35.741Z,25.10
2024-05-09T13:13:23.833Z,24.90
2024-05-09T13:16:15.909Z,24.90
2024-05-09T13:19:09.404Z,24.80
2024-05-09T13:21:57.405Z,24.80
2024-05-09T13:24:48.149Z,24.60
2024-05-09T13:27:36.426Z,24.50
2024-05-09T13:30:35.564Z,24.40
2024-05-09T13:33:28.104Z,24.30
2024-05-09T13:36:21.403Z,24.10
2024-05-09T13:39:09.343Z,24.00
2024-05-09T13:41:59.822Z,23.90
2024-05-09T13:44:47.697Z,24.00
2024-05-09T13:47:38.350Z,23.90
2024-05-09T13:50:34.191Z,24.00
2024-05-09T13:53:26.824Z,24.00
2024-05-09T13:56:17.354Z,24.00
2024-05-09T13:59:05.534Z,24.00
2024-05-09T14:01:56.120Z,23.90
2024-05-09T14:05:10.872Z,23.90
2024-05-09T14:08:02.183Z,23.90
2024-05-09T14:10:56.223Z,24.00
2024-05-09T14:13:44.524Z,24.00
2024-05-09T14:16:35.843Z,24.00
2024-05-09T14:19:23.865Z,24.00
2024-05-09T14:22:14.515Z,23.90
2024-05-09T14:25:02.863Z,23.70
2024-05-09T14:27:56.340Z,23.70
2024-05-09T14:30:44.305Z,23.60
2024-05-09T14:33:34.910Z,23.60
2024-05-09T14:36:22.959Z,23.60
2024-05-09T14:39:13.419Z,23.50
2024-05-09T14:42:01.288Z,23.50
2024-05-09T14:44:54.479Z,23.50
2024-05-09T14:47:42.504Z,23.40
2024-05-09T14:50:37.333Z,23.30
2024-05-09T14:53:28.403Z,23.30
2024-05-09T14:56:18.996Z,23.30
2024-05-09T14:59:07.578Z,23.30
2024-05-09T15:02:00.779Z,23.30
2024-05-09T15:04:48.877Z,23.30
2024-05-09T15:07:39.732Z,23.30
2024-05-09T15:10:34.807Z,23.20
2024-05-09T15:13:25.163Z,23.20
2024-05-09T15:16:15.847Z,23.10
2024-05-09T15:19:06.570Z,23.00
2024-05-09T15:21:57.332Z,23.00
2024-05-09T15:24:46.369Z,23.10
2024-05-09T15:27:36.982Z,23.00
2024-05-09T15:33:19.012Z,23.00
2024-05-09T15:36:12.634Z,23.10
2024-05-09T15:39:00.885Z,23.00
2024-05-09T15:41:52.959Z,22.80
2024-05-09T15:44:40.837Z,22.80
2024-05-09T15:47:31.653Z,22.70
2024-05-09T15:50:28.311Z,22.70
2024-05-09T15:53:29.170Z,22.70
2024-05-09T15:56:17.360Z,22.60
2024-05-09T15:59:08.137Z,22.50
2024-05-09T16:01:56.966Z,22.50
2024-05-09T16:04:47.583Z,22.60
2024-05-09T16:07:35.588Z,22.50
2024-05-09T16:10:32.703Z,22.50
2024-05-09T16:13:22.113Z,22.40
2024-05-09T16:16:12.763Z,22.50
2024-05-09T16:19:00.771Z,22.40
2024-05-09T16:21:51.302Z,22.40
2024-05-09T16:24:39.724Z,22.40
2024-05-09T16:27:32.941Z,22.30
2024-05-09T16:30:27.301Z,22.40
2024-05-09T16:33:23.955Z,22.30
2024-05-09T16:36:12.113Z,22.30
2024-05-09T16:39:02.790Z,22.30
2024-05-09T16:41:50.584Z,22.20
2024-05-09T16:44:43.658Z,22.20
2024-05-09T16:47:34.301Z,22.20
2024-05-09T16:50:28.868Z,22.20
2024-05-09T16:53:23.230Z,22.20
2024-05-09T16:56:12.589Z,22.20
2024-05-09T16:59:03.117Z,22.10
2024-05-09T17:01:53.691Z,22.10
2024-05-09T17:04:44.234Z,22.10
2024-05-09T17:07:32.426Z,22.10
2024-05-09T17:10:29.654Z,22.00
2024-05-09T17:13:23.839Z,22.10
2024-05-09T17:16:15.612Z,22.00
2024-05-09T17:19:09.432Z,21.90
2024-05-09T17:21:57.308Z,21.90
2024-05-09T17:24:47.822Z,21.80
2024-05-09T17:27:35.968Z,21.80
2024-05-09T17:30:32.481Z,21.80
2024-05-09T17:33:24.338Z,21.70
2024-05-09T17:36:17.556Z,21.70
2024-05-09T17:39:05.702Z,21.70
2024-05-09T17:41:56.153Z,21.70
2024-05-09T17:44:43.951Z,21.60
2024-05-09T17:47:34.486Z,21.60
2024-05-09T17:50:28.022Z,21.60
2024-05-09T17:53:27.654Z,21.60
2024-05-09T17:56:18.337Z,21.50
2024-05-09T17:59:09.197Z,21.40
2024-05-09T18:02:01.480Z,21.40
2024-05-09T18:04:49.516Z,21.30
2024-05-09T18:07:40.073Z,21.30
2024-05-09T18:10:37.240Z,21.30
2024-05-09T18:13:30.089Z,21.30
2024-05-09T18:16:18.569Z,21.20
2024-05-09T18:19:09.681Z,21.20
2024-05-09T18:21:57.706Z,21.20
2024-05-09T18:24:48.254Z,21.10
2024-05-09T18:27:42.089Z,21.10
2024-05-09T18:30:34.866Z,21.00
2024-05-09T18:33:27.313Z,21.00
2024-05-09T18:36:15.294Z,20.90
2024-05-09T18:39:06.235Z,20.90
2024-05-09T18:41:56.730Z,20.90
2024-05-09T18:44:47.245Z,20.80
2024-05-09T18:47:37.911Z,20.70
2024-05-09T18:50:33.711Z,20.60
2024-05-09T18:53:27.898Z,20.60
2024-05-09T18:56:18.479Z,20.50
2024-05-09T18:59:06.432Z,20.50
2024-05-09T19:01:59.576Z,20.40
2024-05-09T19:04:48.293Z,20.30
2024-05-09T19:07:39.088Z,20.30
2024-05-09T19:10:33.657Z,20.20
2024-05-09T19:13:25.873Z,20.10
2024-05-09T19:16:13.931Z,20.00
2024-05-09T19:19:07.648Z,20.00
2024-05-09T19:22:00.613Z,19.90
2024-05-09T19:24:51.165Z,19.80
2024-05-09T19:27:39.075Z,19.70
2024-05-09T19:30:37.779Z,19.60
2024-05-09T19:33:29.385Z,19.50
2024-05-09T19:36:22.754Z,19.40
2024-05-09T19:39:11.632Z,19.30
2024-05-09T19:42:02.131Z,19.20
2024-05-09T19:44:50.150Z,19.10
2024-05-09T19:47:40.803Z,18.90
2024-05-09T19:50:37.170Z,18.90
2024-05-09T19:53:35.658Z,18.70
2024-05-09T19:56:23.596Z,18.70
2024-05-09T19:59:14.544Z,18.50
2024-05-09T20:02:02.627Z,18.50
2024-05-09T20:04:53.995Z,18.30
2024-05-09T20:07:42.241Z,18.20
2024-05-09T20:10:36.501Z,18.10
2024-05-09T20:13:25.091Z,18.00
2024-05-09T20:16:15.675Z,17.90
2024-05-09T20:19:06.261Z,17.80
2024-05-09T20:21:54.213Z,17.70
2024-05-09T20:24:44.738Z,17.60
2024-05-09T20:27:35.239Z,17.50
2024-05-09T20:30:31.701Z,17.40
2024-05-09T20:33:24.000Z,17.30
2024-05-09T20:36:11.943Z,17.20
2024-05-09T20:39:02.487Z,17.10
2024-05-09T20:41:50.365Z,17.00
2024-05-09T20:44:43.418Z,16.90
2024-05-09T20:47:31.382Z,16.90
2024-05-09T20:50:29.170Z,16.80
2024-05-09T20:53:24.758Z,16.70
2024-05-09T20:56:15.224Z,16.60
2024-05-09T20:59:05.683Z,16.60
2024-05-09T21:01:56.228Z,16.50
2024-05-09T21:04:46.832Z,16.40
2024-05-09T21:07:34.738Z,16.40
2024-05-09T21:10:27.132Z,16.40
2024-05-09T21:13:20.132Z,16.30
2024-05-09T21:16:08.491Z,16.20
2024-05-09T21:19:01.669Z,16.10
2024-05-09T21:21:53.406Z,16.00
2024-05-09T21:24:41.332Z,16.00
2024-05-09T21:27:33.651Z,16.00
2024-05-09T21:30:31.820Z,15.90
2024-05-09T21:33:30.881Z,15.90
2024-05-09T21:36:21.517Z,15.80
2024-05-09T21:39:13.919Z,15.70
2024-05-09T21:42:02.727Z,15.60
2024-05-09T21:44:53.214Z,15.60
2024-05-09T21:47:41.140Z,15.50
2024-05-09T21:50:38.869Z,15.50
2024-05-09T21:53:32.792Z,15.40
2024-05-09T21:56:24.340Z,15.40
2024-05-09T21:59:12.164Z,15.40
2024-05-09T22:02:03.263Z,15.40
2024-05-09T22:04:51.267Z,15.40
2024-05-09T22:07:42.057Z,15.30
2024-05-09T22:10:35.067Z,15.30
2024-05-09T22:13:28.708Z,15.20
2024-05-09T22:16:16.571Z,15.20
2024-05-09T22:19:07.081Z,15.20
2024-05-09T22:21:55.486Z,15.20
2024-05-09T22:24:45.980Z,15.10
2024-05-09T22:27:36.912Z,15.00
2024-05-09T22:30:34.783Z,15.00
2024-05-09T22:33:26.039Z,15.00
2024-05-09T22:36:16.599Z,14.90
2024-05-09T22:39:06.590Z,14.90
2024-05-09T22:41:57.025Z,14.80
2024-05-09T22:44:47.459Z,14.80
2024-05-09T22:47:37.996Z,14.80
2024-05-09T22:50:27.240Z,14.80
2024-05-09T22:53:24.706Z,14.80
2024-05-09T22:56:15.146Z,14.70
2024-05-09T22:59:06.684Z,14.70
2024-05-09T23:01:57.248Z,14.70
2024-05-09T23:04:48.197Z,14.70
2024-05-09T23:07:36.057Z,14.70
2024-05-09T23:10:32.476Z,14.70
2024-05-09T23:13:26.985Z,14.70
2024-05-09T23:16:17.712Z,14.70
2024-05-09T23:19:09.616Z,14.70
2024-05-09T23:22:00.160Z,14.70
2024-05-09T23:24:48.188Z,14.70
2024-05-09T23:27:39.184Z,14.70
2024-05-09T23:30:34.706Z,14.70
2024-05-09T23:33:29.150Z,14.70
2024-05-09T23:36:19.602Z,14.70
2024-05-09T23:39:10.337Z,14.70
2024-05-09T23:41:58.171Z,14.70
2024-05-09T23:44:48.637Z,14.70
2024-05-09T23:47:36.535Z,14.70
2024-05-09T23:50:34.152Z,14.70
2024-05-09T23:53:27.669Z,14.70
2024-05-09T23:56:18.646Z,14.60
2024-05-09T23:59:06.622Z,14.60
